createdAt,value
2018-11-25T00:00:12.488Z,93.00
2018-11-25T00:05:16.056Z,93.80
2018-11-25T00:10:19.630Z,93.90
2018-11-25T00:15:23.582Z,94.10
2018-11-25T00:20:27.070Z,94.60
2018-11-25T00:25:30.634Z,94.10
2018-11-25T00:30:34.337Z,94.40
2018-11-25T00:35:38.035Z,94.60
2018-11-25T00:40:41.563Z,94.40
2018-11-25T00:45:44.994Z,94.40
2018-11-25T00:50:48.567Z,94.40
2018-11-25T00:55:52.212Z,94.30
2018-11-25T01:00:55.774Z,94.70
2018-11-25T01:05:59.280Z,94.80
2018-11-25T01:11:02.727Z,94.90
2018-11-25T01:16:06.500Z,95.00
2018-11-25T01:21:10.038Z,95.10
2018-11-25T01:26:13.646Z,95.10
2018-11-25T01:31:17.248Z,95.20
2018-11-25T01:36:20.766Z,95.30
2018-11-25T01:41:24.318Z,95.00
2018-11-25T01:46:27.819Z,94.80
2018-11-25T01:51:31.251Z,94.70
2018-11-25T01:56:34.798Z,95.50
2018-11-25T02:01:38.380Z,95.00
2018-11-25T02:06:41.877Z,94.50
2018-11-25T02:11:45.346Z,94.60
2018-11-25T02:16:48.832Z,95.10
2018-11-25T02:21:53.144Z,95.20
2018-11-25T02:26:56.580Z,94.60
2018-11-25T02:32:00.146Z,94.50
2018-11-25T02:37:03.927Z,94.40
2018-11-25T02:42:07.595Z,94.40
2018-11-25T02:47:11.092Z,94.80
2018-11-25T02:52:14.548Z,95.60
2018-11-25T02:57:22.915Z,95.60
2018-11-25T03:02:26.586Z,95.90
2018-11-25T03:07:33.283Z,96.00
2018-11-25T03:12:36.741Z,95.20
2018-11-25T03:17:40.279Z,95.60
2018-11-25T03:22:43.816Z,95.70
2018-11-25T03:27:47.448Z,95.70
2018-11-25T03:32:52.641Z,95.80
2018-11-25T03:37:56.137Z,95.70
2018-11-25T03:42:59.690Z,95.70
2018-11-25T03:48:03.482Z,95.20
2018-11-25T03:53:07.009Z,94.80
2018-11-25T03:58:10.465Z,95.20
2018-11-25T04:03:14.127Z,95.30
2018-11-25T04:08:17.653Z,95.60
2018-11-25T04:13:21.077Z,95.80
2018-11-25T04:18:27.585Z,95.40
2018-11-25T04:23:31.192Z,95.60
2018-11-25T04:28:35.054Z,95.50
2018-11-25T04:33:38.632Z,95.70
2018-11-25T04:38:42.308Z,95.50
2018-11-25T04:43:45.785Z,95.20
2018-11-25T04:48:49.396Z,95.40
2018-11-25T04:53:52.974Z,96.00
2018-11-25T04:58:56.553Z,95.40
2018-11-25T05:04:00.177Z,95.40
2018-11-25T05:09:05.487Z,94.90
2018-11-25T05:14:09.130Z,95.30
2018-11-25T05:19:12.625Z,95.10
2018-11-25T05:24:16.262Z,95.30
2018-11-25T05:29:19.803Z,95.30
2018-11-25T05:34:23.346Z,95.30
2018-11-25T05:39:26.901Z,95.80
2018-11-25T05:44:30.403Z,95.40
2018-11-25T05:49:36.691Z,95.70
2018-11-25T05:54:37.396Z,95.70
2018-11-25T05:59:40.826Z,95.90
2018-11-25T06:04:44.440Z,95.70
2018-11-25T06:09:47.981Z,95.50
2018-11-25T06:14:51.672Z,95.50
2018-11-25T06:19:55.144Z,95.20
2018-11-25T06:24:58.674Z,95.10
2018-11-25T06:30:02.174Z,94.90
2018-11-25T06:35:07.929Z,95.40
2018-11-25T06:40:17.728Z,95.90
2018-11-25T06:45:29.801Z,95.50
2018-11-25T06:50:33.371Z,95.50
2018-11-25T06:55:37.327Z,95.60
2018-11-25T07:00:40.912Z,95.50
2018-11-25T07:05:44.902Z,95.30
2018-11-25T07:10:48.399Z,95.60
2018-11-25T07:15:51.888Z,95.70
2018-11-25T07:20:55.412Z,96.00
2018-11-25T07:25:58.910Z,95.50
2018-11-25T07:31:02.352Z,95.80
2018-11-25T07:36:06.681Z,95.70
2018-11-25T07:41:10.126Z,95.40
2018-11-25T07:46:13.627Z,95.50
2018-11-25T07:51:17.157Z,95.40
2018-11-25T07:56:20.902Z,95.30
2018-11-25T08:01:24.418Z,95.40
2018-11-25T08:06:28.296Z,95.50
2018-11-25T08:11:32.086Z,95.80
2018-11-25T08:16:35.709Z,95.40
2018-11-25T08:21:39.389Z,95.60
2018-11-25T08:26:42.950Z,95.90
2018-11-25T08:31:46.522Z,96.10
2018-11-25T08:36:50.019Z,95.50
2018-11-25T08:41:53.553Z,95.30
2018-11-25T08:46:57.192Z,95.50
2018-11-25T08:52:00.671Z,95.60
2018-11-25T08:57:04.236Z,95.50
2018-11-25T09:02:07.822Z,95.40
2018-11-25T09:07:11.385Z,95.20
2018-11-25T09:12:15.325Z,95.00
2018-11-25T09:17:19.137Z,95.20
2018-11-25T09:22:22.739Z,95.00
2018-11-25T09:27:26.334Z,94.90
2018-11-25T09:32:30.215Z,95.00
2018-11-25T09:37:34.389Z,95.10
2018-11-25T09:42:38.435Z,94.70
2018-11-25T09:47:42.558Z,94.90
2018-11-25T09:52:46.139Z,94.10
2018-11-25T09:57:55.412Z,93.50
2018-11-25T10:02:58.932Z,93.30
2018-11-25T10:08:02.715Z,93.80
2018-11-25T10:13:06.322Z,93.60
2018-11-25T10:18:10.249Z,93.30
2018-11-25T10:23:13.750Z,93.40
2018-11-25T10:28:17.540Z,93.30
2018-11-25T10:33:22.628Z,93.20
2018-11-25T10:38:26.496Z,93.10
2018-11-25T10:43:30.478Z,92.80
2018-11-25T10:48:34.301Z,92.40
2018-11-25T10:53:38.004Z,92.30
2018-11-25T10:58:41.806Z,92.30
2018-11-25T11:03:51.330Z,91.80
2018-11-25T11:08:55.089Z,92.00
2018-11-25T11:13:58.645Z,92.30
2018-11-25T11:19:02.140Z,92.30
2018-11-25T11:24:06.271Z,92.30
2018-11-25T11:29:09.879Z,91.90
2018-11-25T11:34:13.326Z,92.40
2018-11-25T11:39:16.898Z,92.50
2018-11-25T11:44:20.464Z,92.80
2018-11-25T11:49:23.938Z,92.80
2018-11-25T11:54:27.428Z,93.20
2018-11-25T11:59:30.916Z,93.50
2018-11-25T12:04:34.433Z,93.40
2018-11-25T12:09:38.013Z,93.60
2018-11-25T12:14:41.480Z,93.70
2018-11-25T12:19:45.053Z,93.80
2018-11-25T12:24:48.497Z,93.60
2018-11-25T12:29:52.342Z,93.80
2018-11-25T12:34:55.794Z,93.80
2018-11-25T12:39:59.333Z,94.10
2018-11-25T12:45:02.822Z,94.00
2018-11-25T12:50:10.429Z,93.90
2018-11-25T12:55:17.421Z,93.70
2018-11-25T13:00:31.213Z,93.70
2018-11-25T13:05:34.809Z,93.70
2018-11-25T13:10:38.376Z,93.70
2018-11-25T13:15:42.117Z,93.90
2018-11-25T13:20:45.580Z,93.80
2018-11-25T13:25:49.190Z,94.20
2018-11-25T13:30:52.725Z,94.10
2018-11-25T13:35:56.238Z,94.10
2018-11-25T13:40:59.993Z,93.90
2018-11-25T13:46:03.581Z,93.70
2018-11-25T13:51:08.870Z,93.70
2018-11-25T13:56:12.348Z,93.60
2018-11-25T14:01:16.012Z,93.80
2018-11-25T14:06:19.612Z,93.40
2018-11-25T14:11:23.066Z,93.70
2018-11-25T14:16:26.768Z,94.10
2018-11-25T14:21:31.520Z,94.00
2018-11-25T14:26:55.731Z,93.90
2018-11-25T14:31:59.205Z,93.90
2018-11-25T14:37:02.837Z,93.80
2018-11-25T14:42:06.394Z,93.30
2018-11-25T14:47:10.715Z,93.30
2018-11-25T14:52:14.245Z,93.40
2018-11-25T14:57:17.879Z,93.60
2018-11-25T15:02:21.489Z,93.40
2018-11-25T15:07:25.605Z,93.50
2018-11-25T15:12:29.097Z,93.50
2018-11-25T15:17:32.553Z,93.40
2018-11-25T15:22:36.098Z,93.60
2018-11-25T15:27:39.599Z,93.40
2018-11-25T15:32:43.180Z,93.40
2018-11-25T15:37:48.981Z,93.50
2018-11-25T15:42:52.833Z,93.40
2018-11-25T15:48:06.905Z,93.50
2018-11-25T15:53:11.280Z,93.50
2018-11-25T15:58:14.898Z,93.70
2018-11-25T16:03:18.377Z,94.10
2018-11-25T16:08:23.093Z,93.80
2018-11-25T16:13:26.576Z,93.70
2018-11-25T16:18:30.155Z,93.50
2018-11-25T16:23:33.784Z,93.50
2018-11-25T16:28:40.313Z,93.90
2018-11-25T16:33:43.889Z,93.90
2018-11-25T16:38:47.568Z,93.80
2018-11-25T16:43:51.699Z,94.20
2018-11-25T16:48:55.233Z,93.70
2018-11-25T16:53:58.821Z,93.80
2018-11-25T16:59:02.348Z,94.10
2018-11-25T17:04:06.284Z,94.10
2018-11-25T17:09:11.873Z,94.10
2018-11-25T17:14:15.441Z,94.20
2018-11-25T17:19:19.012Z,94.20
2018-11-25T17:24:22.815Z,94.10
2018-11-25T17:29:26.295Z,94.00
2018-11-25T17:34:29.836Z,94.10
2018-11-25T17:39:33.317Z,94.20
2018-11-25T17:44:36.979Z,94.20
2018-11-25T17:49:40.491Z,94.10
2018-11-25T17:54:45.084Z,94.00
2018-11-25T17:59:48.818Z,94.00
2018-11-25T18:04:52.628Z,94.20
2018-11-25T18:09:56.255Z,94.00
2018-11-25T18:14:59.942Z,94.10
2018-11-25T18:20:04.338Z,94.20
2018-11-25T18:25:08.076Z,94.20
2018-11-25T18:30:15.640Z,94.10
2018-11-25T18:35:19.150Z,94.20
2018-11-25T18:40:22.771Z,95.30
2018-11-25T18:45:26.508Z,94.80
2018-11-25T18:50:30.032Z,94.20
2018-11-25T18:55:31.811Z,94.20
2018-11-25T19:00:47.030Z,94.40
2018-11-25T19:05:50.614Z,94.40
2018-11-25T19:10:54.162Z,94.30
2018-11-25T19:15:58.208Z,94.50
2018-11-25T19:21:01.748Z,94.30
2018-11-25T19:26:06.231Z,94.20
2018-11-25T19:31:09.705Z,94.00
2018-11-25T19:36:13.233Z,93.90
2018-11-25T19:41:16.697Z,94.00
2018-11-25T19:46:21.208Z,93.60
2018-11-25T19:51:24.747Z,93.70
2018-11-25T19:56:28.254Z,93.50
2018-11-25T20:01:31.930Z,93.60
2018-11-25T20:06:35.805Z,93.60
2018-11-25T20:11:39.321Z,93.90
2018-11-25T20:16:48.468Z,93.60
2018-11-25T20:21:57.794Z,93.50
2018-11-25T20:27:08.249Z,93.50
2018-11-25T20:32:17.413Z,93.40
2018-11-25T20:37:26.751Z,93.30
2018-11-25T20:42:24.652Z,93.10
2018-11-25T20:47:28.264Z,92.90
2018-11-25T20:52:37.359Z,92.90
2018-11-25T20:57:40.927Z,93.00
2018-11-25T21:02:44.584Z,93.00
2018-11-25T21:07:48.098Z,93.30
2018-11-25T21:12:54.343Z,93.80
2018-11-25T21:17:57.900Z,93.80
2018-11-25T21:23:01.326Z,94.00
2018-11-25T21:28:08.725Z,93.80
2018-11-25T21:33:12.325Z,93.90
2018-11-25T21:38:16.040Z,94.10
2018-11-25T21:43:19.765Z,94.40
2018-11-25T21:48:23.624Z,94.60
2018-11-25T21:53:27.169Z,94.50
2018-11-25T21:58:30.817Z,94.60
2018-11-25T22:03:34.596Z,94.50
2018-11-25T22:08:38.439Z,94.30
2018-11-25T22:13:42.188Z,94.10
2018-11-25T22:18:45.911Z,94.50
2018-11-25T22:23:49.457Z,94.40
2018-11-25T22:28:52.954Z,94.40
2018-11-25T22:33:56.666Z,94.50
2018-11-25T22:39:00.165Z,94.60
2018-11-25T22:44:04.828Z,94.40
2018-11-25T22:49:08.440Z,94.20
2018-11-25T22:54:12.063Z,94.10
2018-11-25T22:59:15.490Z,94.00
2018-11-25T23:05:34.437Z,94.10
2018-11-25T23:10:38.049Z,94.60
2018-11-25T23:15:41.750Z,94.60
2018-11-25T23:20:45.384Z,94.20
2018-11-25T23:25:48.960Z,92.90
2018-11-25T23:30:52.508Z,92.90
2018-11-25T23:35:55.981Z,93.50
2018-11-25T23:40:59.569Z,93.90
2018-11-25T23:46:03.579Z,94.10
2018-11-25T23:51:07.225Z,95.00
2018-11-25T23:56:10.710Z,94.20
